createdAt,value
2022-08-26T00:00:53.233Z,100149.00
2022-08-26T00:03:22.444Z,100145.00
2022-08-26T00:05:51.886Z,100143.00
2022-08-26T00:08:22.380Z,100142.00
2022-08-26T00:10:51.259Z,100144.00
2022-08-26T00:13:20.089Z,100139.00
2022-08-26T00:15:51.312Z,100136.00
2022-08-26T00:18:22.366Z,100143.00
2022-08-26T00:20:51.731Z,100137.00
2022-08-26T00:23:20.416Z,100135.00
2022-08-26T00:25:53.871Z,100134.00
2022-08-26T00:28:22.765Z,100133.00
2022-08-26T00:30:54.149Z,100134.00
2022-08-26T00:33:23.292Z,100137.00
2022-08-26T00:35:52.050Z,100133.00
2022-08-26T00:38:22.953Z,100137.00
2022-08-26T00:40:53.969Z,100131.00
2022-08-26T00:43:23.936Z,100129.00
2022-08-26T00:45:59.870Z,100128.00
2022-08-26T00:48:33.711Z,100123.00
2022-08-26T00:51:07.761Z,100126.00
2022-08-26T00:53:42.531Z,100116.00
2022-08-26T00:56:19.163Z,100125.00
2022-08-26T00:58:48.171Z,100120.00
2022-08-26T01:01:19.447Z,100117.00
2022-08-26T01:03:51.896Z,100114.00
2022-08-26T01:06:20.959Z,100108.00
2022-08-26T01:08:49.765Z,100111.00
2022-08-26T01:11:18.350Z,100110.00
2022-08-26T01:13:47.552Z,100110.00
2022-08-26T01:16:18.659Z,100115.00
2022-08-26T01:18:49.611Z,100119.00
2022-08-26T01:21:23.930Z,100112.00
2022-08-26T01:23:57.532Z,100114.00
2022-08-26T01:26:30.510Z,100119.00
2022-08-26T01:29:03.025Z,100118.00
2022-08-26T01:31:41.762Z,100117.00
2022-08-26T01:34:15.736Z,100121.00
2022-08-26T01:36:47.919Z,100118.00
2022-08-26T01:39:21.125Z,100122.00
2022-08-26T01:41:53.671Z,100125.00
2022-08-26T01:44:26.485Z,100120.00
2022-08-26T01:46:56.365Z,100126.00
2022-08-26T01:49:26.895Z,100123.00
2022-08-26T01:51:58.152Z,100121.00
2022-08-26T01:54:28.337Z,100126.00
2022-08-26T01:56:58.381Z,100126.00
2022-08-26T01:59:27.373Z,100119.00
2022-08-26T02:01:55.903Z,100126.00
2022-08-26T02:04:29.998Z,100117.00
2022-08-26T02:06:59.266Z,100123.00
2022-08-26T02:09:29.449Z,100128.00
2022-08-26T02:12:01.647Z,100127.00
2022-08-26T02:14:34.190Z,100126.00
2022-08-26T02:17:03.614Z,100127.00
2022-08-26T02:19:40.148Z,100121.00
2022-08-26T02:22:13.815Z,100117.00
2022-08-26T02:24:54.799Z,100118.00
2022-08-26T02:27:28.156Z,100131.00
2022-08-26T02:30:08.051Z,100124.00
2022-08-26T02:32:36.533Z,100127.00
2022-08-26T02:35:05.392Z,100116.00
2022-08-26T02:37:34.409Z,100118.00
2022-08-26T02:40:05.951Z,100115.00
2022-08-26T02:42:34.555Z,100116.00
2022-08-26T02:45:04.065Z,100114.00
2022-08-26T02:47:34.435Z,100113.00
2022-08-26T02:50:03.899Z,100119.00
2022-08-26T02:52:32.453Z,100112.00
2022-08-26T02:55:01.153Z,100116.00
2022-08-26T02:57:32.267Z,100116.00
2022-08-26T03:00:01.750Z,100109.00
2022-08-26T03:02:31.413Z,100103.00
2022-08-26T03:05:02.064Z,100109.00
2022-08-26T03:07:31.298Z,100110.00
2022-08-26T03:10:00.688Z,100115.00
2022-08-26T03:12:29.401Z,100116.00
2022-08-26T03:14:59.827Z,100112.00
2022-08-26T03:17:29.003Z,100108.00
2022-08-26T03:19:58.460Z,100107.00
2022-08-26T03:22:27.646Z,100104.00
2022-08-26T03:24:56.552Z,100106.00
2022-08-26T03:27:25.114Z,100105.00
2022-08-26T03:30:11.783Z,100100.00
2022-08-26T03:32:42.073Z,100100.00
2022-08-26T03:35:11.257Z,100098.00
2022-08-26T03:37:40.248Z,100102.00
2022-08-26T03:40:11.521Z,100105.00
2022-08-26T03:42:40.828Z,100097.00
2022-08-26T03:45:15.418Z,100093.00
2022-08-26T03:47:46.469Z,100093.00
2022-08-26T03:50:22.951Z,100089.00
2022-08-26T03:52:54.157Z,100080.00
2022-08-26T03:55:25.494Z,100082.00
2022-08-26T03:57:55.841Z,100083.00
2022-08-26T04:00:24.888Z,100090.00
2022-08-26T04:02:55.253Z,100081.00
2022-08-26T04:05:24.422Z,100088.00
2022-08-26T04:07:53.071Z,100084.00
2022-08-26T04:10:28.544Z,100080.00
2022-08-26T04:12:58.903Z,100091.00
2022-08-26T04:15:28.400Z,100085.00
2022-08-26T04:17:58.417Z,100085.00
2022-08-26T04:20:27.442Z,100085.00
2022-08-26T04:22:56.737Z,100082.00
2022-08-26T04:25:25.688Z,100090.00
2022-08-26T04:27:54.947Z,100079.00
2022-08-26T04:30:23.604Z,100087.00
2022-08-26T04:33:12.916Z,100092.00
2022-08-26T04:35:44.040Z,100093.00
2022-08-26T04:38:12.629Z,100092.00
2022-08-26T04:40:46.841Z,100093.00
2022-08-26T04:43:15.680Z,100089.00
2022-08-26T04:45:44.529Z,100082.00
2022-08-26T04:48:15.123Z,100085.00
2022-08-26T04:50:46.880Z,100074.00
2022-08-26T04:53:18.202Z,100083.00
2022-08-26T04:55:48.558Z,100083.00
2022-08-26T04:58:17.760Z,100093.00
2022-08-26T05:00:46.867Z,100090.00
2022-08-26T05:03:17.640Z,100086.00
2022-08-26T05:05:47.772Z,100083.00
2022-08-26T05:08:17.998Z,100083.00
2022-08-26T05:10:54.647Z,100082.00
2022-08-26T05:13:26.664Z,100086.00
2022-08-26T05:15:55.690Z,100080.00
2022-08-26T05:18:31.223Z,100081.00
2022-08-26T05:20:59.717Z,100090.00
2022-08-26T05:23:31.469Z,100087.00
2022-08-26T05:26:01.094Z,100095.00
2022-08-26T05:28:33.625Z,100093.00
2022-08-26T05:31:02.297Z,100094.00
2022-08-26T05:33:32.415Z,100091.00
2022-08-26T05:36:09.303Z,100090.00
2022-08-26T05:38:37.889Z,100093.00
2022-08-26T05:41:14.602Z,100092.00
2022-08-26T05:43:45.294Z,100081.00
2022-08-26T05:46:14.510Z,100092.00
2022-08-26T05:48:44.602Z,100094.00
2022-08-26T05:51:13.932Z,100097.00
2022-08-26T05:53:43.951Z,100094.00
2022-08-26T05:56:24.915Z,100094.00
2022-08-26T05:58:53.593Z,100098.00
2022-08-26T06:01:25.680Z,100098.00
2022-08-26T06:04:01.699Z,100112.00
2022-08-26T06:06:33.766Z,100102.00
2022-08-26T06:09:05.315Z,100100.00
2022-08-26T06:11:34.748Z,100101.00
2022-08-26T06:14:06.429Z,100108.00
2022-08-26T06:16:38.205Z,100102.00
2022-08-26T06:19:10.427Z,100104.00
2022-08-26T06:21:41.540Z,100100.00
2022-08-26T06:24:30.164Z,100100.00
2022-08-26T06:27:01.468Z,100102.00
2022-08-26T06:29:33.545Z,100107.00
2022-08-26T06:32:03.587Z,100101.00
2022-08-26T06:34:33.877Z,100109.00
2022-08-26T06:37:03.969Z,100114.00
2022-08-26T06:39:35.321Z,100109.00
2022-08-26T06:42:10.802Z,100114.00
2022-08-26T06:44:41.629Z,100116.00
2022-08-26T06:47:13.308Z,100109.00
2022-08-26T06:49:44.252Z,100114.00
2022-08-26T06:52:12.903Z,100105.00
2022-08-26T06:54:43.215Z,100107.00
2022-08-26T06:57:13.088Z,100101.00
2022-08-26T06:59:43.190Z,100104.00
2022-08-26T07:02:13.517Z,100114.00
2022-08-26T07:04:44.418Z,100104.00
2022-08-26T07:07:16.628Z,100106.00
2022-08-26T07:09:46.807Z,100100.00
2022-08-26T07:12:18.330Z,100105.00
2022-08-26T07:14:47.469Z,100100.00
2022-08-26T07:17:16.998Z,100107.00
2022-08-26T07:19:48.613Z,100104.00
2022-08-26T07:22:18.426Z,100106.00
2022-08-26T07:24:47.246Z,100107.00
2022-08-26T07:27:17.343Z,100111.00
2022-08-26T07:29:45.963Z,100107.00
2022-08-26T07:32:17.060Z,100101.00
2022-08-26T07:34:47.949Z,100106.00
2022-08-26T07:37:17.616Z,100098.00
2022-08-26T07:39:46.276Z,100099.00
2022-08-26T07:42:16.865Z,100101.00
2022-08-26T07:44:47.314Z,100098.00
2022-08-26T07:47:25.086Z,100086.00
2022-08-26T07:49:57.469Z,100093.00
2022-08-26T07:52:27.606Z,100096.00
2022-08-26T07:54:56.642Z,100091.00
2022-08-26T07:57:25.291Z,100096.00
2022-08-26T07:59:55.189Z,100086.00
2022-08-26T08:02:25.486Z,100090.00
2022-08-26T08:04:56.812Z,100091.00
2022-08-26T08:07:38.694Z,100091.00
2022-08-26T08:10:15.232Z,100084.00
2022-08-26T08:12:45.149Z,100078.00
2022-08-26T08:15:15.463Z,100082.00
2022-08-26T08:17:44.456Z,100076.00
2022-08-26T08:20:15.627Z,100064.00
2022-08-26T08:22:44.252Z,100073.00
2022-08-26T08:25:14.729Z,100060.00
2022-08-26T08:27:45.094Z,100055.00
2022-08-26T08:30:14.890Z,100065.00
2022-08-26T08:32:49.984Z,100054.00
2022-08-26T08:35:22.495Z,100055.00
2022-08-26T08:37:54.374Z,100054.00
2022-08-26T08:40:26.295Z,100059.00
2022-08-26T08:43:00.032Z,100056.00
2022-08-26T08:45:36.585Z,100053.00
2022-08-26T08:48:11.680Z,100054.00
2022-08-26T08:50:45.974Z,100047.00
2022-08-26T08:53:17.907Z,100051.00
2022-08-26T08:55:56.393Z,100046.00
2022-08-26T08:58:36.254Z,100045.00
2022-08-26T09:01:10.061Z,100045.00
2022-08-26T09:03:50.017Z,100037.00
2022-08-26T09:06:20.515Z,100037.00
2022-08-26T09:08:51.533Z,100030.00
2022-08-26T09:11:21.437Z,100038.00
2022-08-26T09:13:53.964Z,100032.00
2022-08-26T09:16:31.898Z,100040.00
2022-08-26T09:19:18.764Z,100030.00
2022-08-26T09:21:57.431Z,100029.00
2022-08-26T09:24:28.509Z,100032.00
2022-08-26T09:26:59.240Z,100028.00
2022-08-26T09:29:30.618Z,100025.00
2022-08-26T09:32:16.243Z,100024.00
2022-08-26T09:34:57.715Z,100022.00
2022-08-26T09:37:43.099Z,100024.00
2022-08-26T09:40:29.165Z,100029.00
2022-08-26T09:43:10.708Z,100027.00
2022-08-26T09:45:41.717Z,100026.00
2022-08-26T09:48:30.213Z,100026.00
2022-08-26T09:51:02.591Z,100023.00
2022-08-26T09:53:36.602Z,100026.00
2022-08-26T09:56:17.987Z,100024.00
2022-08-26T09:58:48.648Z,100022.00
2022-08-26T10:01:27.335Z,100022.00
2022-08-26T10:04:07.848Z,100008.00
2022-08-26T10:06:40.250Z,100005.00
2022-08-26T10:09:14.767Z,99992.00
2022-08-26T10:11:48.212Z,99996.00
2022-08-26T10:14:25.004Z,99987.00
2022-08-26T10:17:00.525Z,99985.00
2022-08-26T10:19:55.560Z,99988.00
2022-08-26T10:22:28.704Z,99993.00
2022-08-26T10:25:03.310Z,99974.00
2022-08-26T10:27:41.459Z,99979.00
2022-08-26T10:30:22.778Z,99978.00
2022-08-26T10:32:57.193Z,99969.00
2022-08-26T10:35:27.036Z,99978.00
2022-08-26T10:37:59.485Z,99972.00
2022-08-26T10:40:36.724Z,99961.00
2022-08-26T10:43:11.102Z,99955.00
2022-08-26T10:45:44.297Z,99957.00
2022-08-26T10:48:19.116Z,99948.00
2022-08-26T10:50:49.981Z,99950.00
2022-08-26T10:53:24.914Z,99953.00
2022-08-26T10:56:02.314Z,99953.00
2022-08-26T10:58:56.617Z,99949.00
2022-08-26T11:01:43.036Z,99954.00
2022-08-26T11:04:27.151Z,99955.00
2022-08-26T11:07:29.168Z,99943.00
2022-08-26T11:10:01.455Z,99943.00
2022-08-26T11:12:53.423Z,99926.00
2022-08-26T11:16:10.460Z,99925.00
2022-08-26T11:18:44.941Z,99924.00
2022-08-26T11:21:47.773Z,99935.00
2022-08-26T11:24:40.702Z,99931.00
2022-08-26T11:27:12.340Z,99933.00
2022-08-26T11:30:04.920Z,99932.00
2022-08-26T11:32:58.311Z,99926.00
2022-08-26T11:35:50.341Z,99912.00
2022-08-26T11:38:26.478Z,99903.00
2022-08-26T11:41:07.728Z,99889.00
2022-08-26T11:43:38.747Z,99889.00
2022-08-26T11:46:11.418Z,99893.00
2022-08-26T11:48:42.454Z,99881.00
2022-08-26T11:51:13.645Z,99877.00
2022-08-26T11:53:47.314Z,99881.00
2022-08-26T11:56:25.536Z,99880.00
2022-08-26T11:58:58.228Z,99863.00
2022-08-26T12:01:31.183Z,99858.00
2022-08-26T12:04:01.389Z,99861.00
2022-08-26T12:06:36.375Z,99855.00
2022-08-26T12:09:15.847Z,99863.00
2022-08-26T12:11:44.375Z,99868.00
2022-08-26T12:14:19.520Z,99859.00
2022-08-26T12:16:49.714Z,99857.00
2022-08-26T12:19:26.400Z,99852.00
2022-08-26T12:21:59.999Z,99855.00
2022-08-26T12:24:28.767Z,99848.00
2022-08-26T12:27:14.314Z,99841.00
2022-08-26T12:29:42.943Z,99852.00
2022-08-26T12:32:19.743Z,99849.00
2022-08-26T12:34:50.044Z,99841.00
2022-08-26T12:37:19.458Z,99841.00
2022-08-26T12:39:49.329Z,99844.00
2022-08-26T12:42:41.230Z,99840.00
2022-08-26T12:45:11.075Z,99843.00
2022-08-26T12:47:44.124Z,99841.00
2022-08-26T12:50:18.460Z,99849.00
2022-08-26T12:52:58.529Z,99837.00
2022-08-26T12:55:36.424Z,99845.00
2022-08-26T12:58:14.948Z,99839.00
2022-08-26T13:00:45.029Z,99847.00
2022-08-26T13:03:38.508Z,99835.00
2022-08-26T13:06:15.867Z,99846.00
2022-08-26T13:08:46.339Z,99839.00
2022-08-26T13:11:18.599Z,99837.00
2022-08-26T13:13:47.911Z,99839.00
2022-08-26T13:16:17.000Z,99839.00
2022-08-26T13:18:48.148Z,99847.00
2022-08-26T13:21:20.614Z,99853.00
2022-08-26T13:23:50.319Z,99851.00
2022-08-26T13:26:19.238Z,99863.00
2022-08-26T13:28:48.650Z,99875.00
2022-08-26T13:31:32.405Z,99869.00
2022-08-26T13:34:03.726Z,99890.00
2022-08-26T13:36:32.312Z,99885.00
2022-08-26T13:39:01.075Z,99892.00
2022-08-26T13:41:29.857Z,99894.00
2022-08-26T13:43:59.388Z,99893.00
2022-08-26T13:46:28.990Z,99894.00
2022-08-26T13:48:57.905Z,99886.00
2022-08-26T13:51:28.935Z,99898.00
2022-08-26T13:53:58.432Z,99884.00
2022-08-26T13:56:29.638Z,99878.00
2022-08-26T13:58:59.491Z,99859.00
2022-08-26T14:01:29.649Z,99856.00
2022-08-26T14:03:58.343Z,99854.00
2022-08-26T14:06:28.338Z,99857.00
2022-08-26T14:08:56.923Z,99852.00
2022-08-26T14:11:25.710Z,99847.00
2022-08-26T14:13:54.269Z,99848.00
2022-08-26T14:16:26.837Z,99846.00
2022-08-26T14:18:55.804Z,99848.00
2022-08-26T14:21:25.046Z,99842.00
2022-08-26T14:24:00.297Z,99835.00
2022-08-26T14:26:30.079Z,99835.00
2022-08-26T14:28:59.578Z,99830.00
2022-08-26T14:31:29.333Z,99826.00
2022-08-26T14:34:00.994Z,99826.00
2022-08-26T14:36:31.288Z,99822.00
2022-08-26T14:39:04.536Z,99811.00
2022-08-26T14:41:35.427Z,99803.00
2022-08-26T14:44:06.440Z,99812.00
2022-08-26T14:46:40.373Z,99827.00
2022-08-26T14:49:10.730Z,99826.00
2022-08-26T14:51:39.597Z,99820.00
2022-08-26T14:54:13.080Z,99806.00
2022-08-26T14:56:47.203Z,99798.00
2022-08-26T14:59:18.534Z,99798.00
2022-08-26T15:01:47.602Z,99788.00
2022-08-26T15:04:16.947Z,99793.00
2022-08-26T15:06:45.538Z,99785.00
2022-08-26T15:09:16.525Z,99767.00
2022-08-26T15:11:45.077Z,99767.00
2022-08-26T15:14:19.358Z,99766.00
2022-08-26T15:16:48.837Z,99773.00
2022-08-26T15:19:18.146Z,99780.00
2022-08-26T15:21:47.658Z,99793.00
2022-08-26T15:24:20.143Z,99790.00
2022-08-26T15:26:49.752Z,99788.00
2022-08-26T15:29:19.040Z,99783.00
2022-08-26T15:31:48.700Z,99785.00
2022-08-26T15:34:17.709Z,99788.00
2022-08-26T15:36:47.537Z,99788.00
2022-08-26T15:39:18.094Z,99791.00
2022-08-26T15:41:47.463Z,99796.00
2022-08-26T15:44:19.705Z,99798.00
2022-08-26T15:46:55.295Z,99801.00
2022-08-26T15:49:26.684Z,99803.00
2022-08-26T15:51:55.531Z,99809.00
2022-08-26T15:54:25.816Z,99821.00
2022-08-26T15:56:57.545Z,99822.00
2022-08-26T15:59:26.856Z,99828.00
2022-08-26T16:01:55.678Z,99827.00
2022-08-26T16:04:24.420Z,99830.00
2022-08-26T16:06:53.501Z,99826.00
2022-08-26T16:09:27.137Z,99826.00
2022-08-26T16:11:56.252Z,99829.00
2022-08-26T16:14:26.021Z,99831.00
2022-08-26T16:16:56.384Z,99837.00
2022-08-26T16:19:25.202Z,99828.00
2022-08-26T16:21:53.772Z,99836.00
2022-08-26T16:24:25.983Z,99838.00
2022-08-26T16:26:58.540Z,99838.00
2022-08-26T16:29:27.481Z,99843.00
2022-08-26T16:31:56.244Z,99828.00
2022-08-26T16:34:25.046Z,99822.00
2022-08-26T16:36:53.824Z,99826.00
2022-08-26T16:39:22.458Z,99832.00
2022-08-26T16:41:51.090Z,99842.00
2022-08-26T16:44:22.221Z,99846.00
2022-08-26T16:46:50.934Z,99854.00
2022-08-26T16:49:27.045Z,99856.00
2022-08-26T16:51:55.575Z,99840.00
2022-08-26T16:54:24.086Z,99812.00
2022-08-26T16:56:52.668Z,99802.00
2022-08-26T16:59:22.584Z,99799.00
2022-08-26T17:01:51.233Z,99809.00
2022-08-26T17:04:20.067Z,99811.00
2022-08-26T17:06:48.619Z,99805.00
2022-08-26T17:09:17.164Z,99808.00
2022-08-26T17:11:45.946Z,99796.00
2022-08-26T17:14:14.619Z,99801.00
2022-08-26T17:16:44.608Z,99789.00
2022-08-26T17:19:13.289Z,99800.00
2022-08-26T17:21:41.890Z,99810.00
2022-08-26T17:24:10.441Z,99809.00
2022-08-26T17:26:39.189Z,99803.00
2022-08-26T17:29:08.310Z,99799.00
2022-08-26T17:31:36.846Z,99797.00
2022-08-26T17:34:07.211Z,99786.00
2022-08-26T17:36:36.109Z,99790.00
2022-08-26T17:39:04.836Z,99781.00
2022-08-26T17:41:33.370Z,99776.00
2022-08-26T17:44:01.899Z,99770.00
2022-08-26T17:46:33.209Z,99763.00
2022-08-26T17:49:02.918Z,99760.00
2022-08-26T17:51:33.278Z,99756.00
2022-08-26T17:54:01.802Z,99737.00
2022-08-26T17:56:31.240Z,99739.00
2022-08-26T17:59:03.514Z,99736.00
2022-08-26T18:01:33.347Z,99739.00
2022-08-26T18:04:02.001Z,99744.00
2022-08-26T18:06:32.974Z,99748.00
2022-08-26T18:09:02.093Z,99753.00
2022-08-26T18:11:32.660Z,99759.00
2022-08-26T18:14:01.635Z,99781.00
2022-08-26T18:16:31.597Z,99792.00
2022-08-26T18:19:00.386Z,99798.00
2022-08-26T18:21:29.530Z,99795.00
2022-08-26T18:23:59.683Z,99792.00
2022-08-26T18:26:31.103Z,99794.00
2022-08-26T18:29:00.024Z,99801.00
2022-08-26T18:31:29.463Z,99803.00
2022-08-26T18:34:00.147Z,99810.00
2022-08-26T18:36:31.570Z,99820.00
2022-08-26T18:39:02.280Z,99820.00
2022-08-26T18:41:35.504Z,99830.00
2022-08-26T18:44:04.416Z,99826.00
2022-08-26T18:46:33.014Z,99832.00
2022-08-26T18:49:01.685Z,99823.00
2022-08-26T18:51:33.020Z,99818.00
2022-08-26T18:54:05.779Z,99812.00
2022-08-26T18:56:35.496Z,99823.00
2022-08-26T18:59:04.213Z,99842.00
2022-08-26T19:01:34.587Z,99852.00
2022-08-26T19:04:05.209Z,99866.00
2022-08-26T19:06:36.243Z,99867.00
2022-08-26T19:09:08.532Z,99869.00
2022-08-26T19:11:42.243Z,99866.00
2022-08-26T19:14:14.822Z,99857.00
2022-08-26T19:16:44.782Z,99849.00
2022-08-26T19:19:13.804Z,99846.00
2022-08-26T19:21:42.472Z,99846.00
2022-08-26T19:24:17.371Z,99845.00
2022-08-26T19:26:47.525Z,99848.00
2022-08-26T19:31:50.329Z,99839.00
2022-08-26T19:34:20.731Z,99839.00
2022-08-26T19:36:49.504Z,99839.00
2022-08-26T19:39:19.464Z,99832.00
2022-08-26T19:41:48.071Z,99822.00
2022-08-26T19:44:38.880Z,99827.00
2022-08-26T19:47:09.533Z,99839.00
2022-08-26T19:49:38.487Z,99823.00
2022-08-26T19:52:07.608Z,99830.00
2022-08-26T19:54:37.708Z,99846.00
2022-08-26T19:57:06.707Z,99848.00
2022-08-26T19:59:36.450Z,99853.00
2022-08-26T20:02:10.082Z,99850.00
2022-08-26T20:04:39.856Z,99844.00
2022-08-26T20:07:09.055Z,99849.00
2022-08-26T20:09:39.151Z,99841.00
2022-08-26T20:12:08.953Z,99844.00
2022-08-26T20:14:37.713Z,99847.00
2022-08-26T20:17:06.886Z,99850.00
2022-08-26T20:19:53.352Z,99835.00
2022-08-26T20:22:22.346Z,99827.00
2022-08-26T20:24:52.823Z,99828.00
2022-08-26T20:27:27.506Z,99830.00
2022-08-26T20:30:09.061Z,99826.00
2022-08-26T20:32:38.429Z,99832.00
2022-08-26T20:35:09.314Z,99824.00
2022-08-26T20:37:39.374Z,99808.00
2022-08-26T20:40:11.423Z,99819.00
2022-08-26T20:42:40.164Z,99824.00
2022-08-26T20:45:09.972Z,99807.00
2022-08-26T20:47:38.965Z,99819.00
2022-08-26T20:50:08.613Z,99830.00
2022-08-26T20:52:37.331Z,99824.00
2022-08-26T20:55:06.703Z,99840.00
2022-08-26T20:57:37.378Z,99831.00
2022-08-26T21:00:07.384Z,99841.00
2022-08-26T21:02:37.035Z,99848.00
2022-08-26T21:05:06.580Z,99843.00
2022-08-26T21:07:36.331Z,99840.00
2022-08-26T21:10:05.111Z,99848.00
2022-08-26T21:12:35.551Z,99849.00
2022-08-26T21:15:04.713Z,99836.00
2022-08-26T21:17:33.633Z,99826.00
2022-08-26T21:20:02.465Z,99833.00
2022-08-26T21:22:31.364Z,99826.00
2022-08-26T21:24:59.906Z,99836.00
2022-08-26T21:27:28.509Z,99828.00
2022-08-26T21:29:58.556Z,99833.00
2022-08-26T21:32:27.188Z,99837.00
2022-08-26T21:34:56.952Z,99838.00
2022-08-26T21:37:26.596Z,99842.00
2022-08-26T21:39:56.048Z,99850.00
2022-08-26T21:42:25.418Z,99842.00
2022-08-26T21:44:54.467Z,99837.00
2022-08-26T21:47:25.452Z,99830.00
2022-08-26T21:49:54.123Z,99825.00
2022-08-26T21:52:22.886Z,99825.00
2022-08-26T21:54:51.513Z,99825.00
2022-08-26T21:57:21.041Z,99818.00
2022-08-26T21:59:49.605Z,99825.00
2022-08-26T22:02:18.280Z,99825.00
2022-08-26T22:04:49.054Z,99811.00
2022-08-26T22:07:19.144Z,99819.00
2022-08-26T22:09:48.683Z,99805.00
2022-08-26T22:12:18.347Z,99799.00
2022-08-26T22:14:47.188Z,99809.00
2022-08-26T22:17:15.999Z,99807.00
2022-08-26T22:19:46.496Z,99812.00
2022-08-26T22:22:16.863Z,99804.00
2022-08-26T22:24:45.449Z,99809.00
2022-08-26T22:27:14.730Z,99800.00
2022-08-26T22:29:43.316Z,99798.00
2022-08-26T22:32:11.977Z,99795.00
2022-08-26T22:34:41.888Z,99806.00
2022-08-26T22:37:10.443Z,99805.00
2022-08-26T22:39:40.557Z,99809.00
2022-08-26T22:42:09.249Z,99808.00
2022-08-26T22:44:38.059Z,99808.00
2022-08-26T22:47:07.757Z,99819.00
2022-08-26T22:49:36.334Z,99817.00
2022-08-26T22:52:05.256Z,99826.00
2022-08-26T22:54:33.805Z,99826.00
2022-08-26T22:57:03.855Z,99822.00
2022-08-26T22:59:32.569Z,99822.00
2022-08-26T23:02:01.172Z,99821.00
2022-08-26T23:04:29.791Z,99819.00
2022-08-26T23:06:58.331Z,99819.00
2022-08-26T23:09:26.916Z,99826.00
2022-08-26T23:11:56.465Z,99826.00
2022-08-26T23:14:27.150Z,99821.00
2022-08-26T23:16:55.694Z,99810.00
2022-08-26T23:19:24.826Z,99817.00
2022-08-26T23:21:53.558Z,99811.00
2022-08-26T23:24:22.144Z,99808.00
2022-08-26T23:26:50.708Z,99807.00
2022-08-26T23:29:19.359Z,99807.00
2022-08-26T23:31:49.303Z,99806.00
2022-08-26T23:34:35.097Z,99809.00
2022-08-26T23:37:06.733Z,99818.00
2022-08-26T23:39:36.135Z,99812.00
2022-08-26T23:42:06.586Z,99826.00
2022-08-26T23:44:35.346Z,99826.00
2022-08-26T23:47:05.726Z,99834.00
2022-08-26T23:49:35.388Z,99832.00
2022-08-26T23:52:22.623Z,99834.00
2022-08-26T23:54:52.346Z,99834.00
2022-08-26T23:57:23.849Z,99834.00
2022-08-26T23:59:53.290Z,99837.00
